Meiyo — JNQN — position and weather

sailwx.info

Track history (hours):
 
Tides and Currents Weather Stations Pressure Air Temp Water Temp Dewpoint Dewpoint Depression Visibility Wind Speed Wind Dir Waves Ship Positions

Oceanographic research ship Meiyo (Japan)

Detailed information on ship capabilities available from University of Delaware's Ocean Information Center.

Last reported at 2017-Apr-20 08:21 UTC. Time now 2017-Apr-23 15:54 UTC.
Position N 34°56' E 139°43'.

Length 60 m; draft 3.5 m.

Type: Other ship. MMSI: 431100381.

Date/timePositionNaut miles runAvg speedWind from/ knotsBaromVisibWave heightAir tempDewpointWater temp
2017-Apr-20 08:21N 34°56' E 139°43'412.8
2017-Apr-20 08:00N 35°01' E 139°42'612.8
2017-Apr-20 07:30N 35°07' E 139°44'713.1
2017-Apr-20 07:00N 35°13' E 139°46'611.1
2017-Apr-20 06:31N 35°18' E 139°44'611.1
2017-Apr-20 06:01N 35°24' E 139°43'612.9
2017-Apr-20 05:31N 35°28' E 139°49'510.5
2017-Apr-20 05:01N 35°33' E 139°51'510.6
2017-Apr-20 04:30N 35°37' E 139°46'2 3.0
2017-Apr-20 04:00N 35°38' E 139°47'0 0.0
2017-Apr-20 03:29N 35°38' E 139°47'0 0.0
2017-Apr-20 02:50N 35°38' E 139°47'0 0.0
2017-Apr-20 02:26N 35°38' E 139°47'0 0.0
2017-Apr-20 01:59N 35°38' E 139°47'0 0.0
2017-Apr-20 01:29N 35°38' E 139°47'0 0.0
2017-Apr-20 00:59N 35°38' E 139°47'0 0.0
2017-Apr-20 00:26N 35°38' E 139°47'  
Track history (hours):
 
Tides and Currents Weather Stations Pressure Air Temp Water Temp Dewpoint Dewpoint Depression Visibility Wind Speed Wind Dir Waves Ship Positions

Oceanographic research ship Meiyo (Japan)

Detailed information on ship capabilities available from University of Delaware's Ocean Information Center.

Last reported at 2017-Apr-20 08:21 UTC. Time now 2017-Apr-23 15:54 UTC.
Position N 34°56' E 139°43'.

Length 60 m; draft 3.5 m.

Type: Other ship. MMSI: 431100381.

Date/timePositionNaut miles runAvg speedWind from/ knotsBaromVisibWave heightAir tempDewpointWater temp
2017-Apr-20 08:21N 34°56' E 139°43'412.8
2017-Apr-20 08:00N 35°01' E 139°42'612.8
2017-Apr-20 07:30N 35°07' E 139°44'713.1
2017-Apr-20 07:00N 35°13' E 139°46'611.1
2017-Apr-20 06:31N 35°18' E 139°44'611.1
2017-Apr-20 06:01N 35°24' E 139°43'612.9
2017-Apr-20 05:31N 35°28' E 139°49'510.5
2017-Apr-20 05:01N 35°33' E 139°51'510.6
2017-Apr-20 04:30N 35°37' E 139°46'2 3.0
2017-Apr-20 04:00N 35°38' E 139°47'0 0.0
2017-Apr-20 03:29N 35°38' E 139°47'0 0.0
2017-Apr-20 02:50N 35°38' E 139°47'0 0.0
2017-Apr-20 02:26N 35°38' E 139°47'0 0.0
2017-Apr-20 01:59N 35°38' E 139°47'0 0.0
2017-Apr-20 01:29N 35°38' E 139°47'0 0.0
2017-Apr-20 00:59N 35°38' E 139°47'0 0.0
2017-Apr-20 00:26N 35°38' E 139°47'  

Dump ship's entire track history